Terminal Aerodrome Forecast
Issued by NWS Indianapolis, IN

Home | Current Version | Previous Version | Text Only | Print | Product List | Glossary On
Versions: 1 2 3 4 5 6 7 8 9 10 11 12 13 14 15 16 17 18 19 20 21 22 23 24 25
000
FTUS43 KIND 240807 AAA
TAFIND
TAF AMD
KIND 240807Z 2408/2512 15006KT P6SM SCT140 BKN250 WS020/20035KT
     FM241100 18010G20KT P6SM BKN060 WS020/21040KT
     FM241200 19013G22KT P6SM BKN045
     FM242000 20015G27KT P6SM VCTS BKN060CB
     FM242300 21014G26KT P6SM SHRA VCTS BKN040CB
     FM250000 22011G22KT P6SM SHRA BKN035=

USA.gov is the U.S. government's official web portal to all federal, state and local government web resources and services.